Time;durP1;ratioP1;P1;durP2;ratioP2;P2;SDS_P1;SDS_P2;PMS_P1;PMS_P2;Temp;Humidity;BMP_temperature;BMP_pressure;BME280_temperature;BME280_humidity;BME280_pressure;Samples;Min_cycle;Max_cycle;Signal;HPM_P1;HPM_P2
2022/01/24 00:02:02;;;;;;;2.30;1.95;;;;;;;;;;5033500;28;20550;-45
2022/01/24 00:04:28;;;;;;;2.92;2.22;;;;;;;;;;5033879;28;20029;-44
2022/01/24 00:06:54;;;;;;;1.90;1.80;;;;;;;;;;5033541;28;20042;-45
2022/01/24 00:09:20;;;;;;;2.53;2.33;;;;;;;;;;5033514;28;20476;-45
2022/01/24 00:11:59;;;;;;;2.20;1.70;;;;;;;;;;5033445;28;20061;-45
2022/01/24 00:14:54;;;;;;;3.53;2.40;;;;;;;;;;5033866;28;20107;-45
2022/01/24 00:28:10;;;;;;;2.17;1.98;;;;;;;;;;5033152;28;20064;-45
2022/01/24 00:30:36;;;;;;;1.73;1.60;;;;;;;;;;5033476;28;20029;-45
2022/01/24 00:33:03;;;;;;;2.53;2.10;;;;;;;;;;5033211;28;20033;-45
2022/01/24 00:35:29;;;;;;;1.98;1.80;;;;;;;;;;5033097;28;20100;-45
2022/01/24 00:38:01;;;;;;;3.38;2.13;;;;;;;;;;5033049;28;20471;-45
2022/01/24 00:40:28;;;;;;;2.70;2.10;;;16.10;88.90;;;;;;5033025;28;20026;-44
2022/01/24 00:42:58;;;;;;;2.88;2.30;;;;;;;;;;5032908;28;20083;-45
2022/01/24 00:45:32;;;;;;;2.30;2.10;;;16.10;91.10;;;;;;5033136;28;20488;-45
2022/01/24 00:53:30;;;;;;;2.00;1.80;;;;;;;;;;5032829;28;20076;-45
2022/01/24 00:55:57;;;;;;;2.40;2.20;;;;;;;;;;5032985;28;20113;-45
2022/01/24 00:58:23;;;;;;;1.90;1.60;;;;;;;;;;5032718;28;20105;-45
2022/01/24 01:00:49;;;;;;;3.40;2.17;;;;;;;;;;5032820;28;20491;-45
2022/01/24 01:03:15;;;;;;;2.55;2.10;;;;;;;;;;5032346;28;20496;-44
2022/01/24 01:19:06;;;;;;;3.58;2.20;;;;;;;;;;5032727;28;20044;-47
2022/01/24 01:21:32;;;;;;;2.30;2.10;;;;;;;;;;5032303;28;20044;-48
2022/01/24 01:23:59;;;;;;;3.33;2.20;;;;;;;;;;5032337;28;20040;-47
2022/01/24 01:26:32;;;;;;;2.85;2.17;;;15.90;91.50;;;;;;5032622;28;20052;-47
2022/01/24 01:29:04;;;;;;;2.38;2.13;;;16.00;89.40;;;;;;5032850;28;20044;-47
2022/01/24 01:31:52;;;;;;;2.47;2.13;;;;;;;;;;5032592;28;20022;-48
2022/01/24 01:37:24;;;;;;;2.63;1.95;;;;;;;;;;5032283;28;20400;-48
2022/01/24 01:40:24;;;;;;;2.38;2.00;;;;;;;;;;5032114;28;20113;-48
2022/01/24 01:56:08;;;;;;;2.30;2.10;;;15.80;91.50;;;;;;5033806;28;20029;-48
2022/01/24 01:58:34;;;;;;;2.58;2.30;;;15.90;90.50;;;;;;5036039;28;20067;-49
2022/01/24 02:01:03;;;;;;;2.38;2.17;;;15.80;91.50;;;;;;5035942;28;20034;-48
2022/01/24 02:03:29;;;;;;;2.28;2.08;;;;;;;;;;5035903;28;20108;-46
2022/01/24 02:05:55;;;;;;;2.88;2.60;;;;;;;;;;5035835;28;20091;-45
2022/01/24 02:08:22;;;;;;;2.80;2.17;;;;;;;;;;5035862;28;20061;-45
2022/01/24 02:10:48;;;;;;;2.70;2.28;;;;;;;;;;5035804;28;20117;-46
2022/01/24 02:13:14;;;;;;;3.08;2.65;;;;;;;;;;5035719;28;20068;-45
2022/01/24 02:15:56;;;;;;;2.40;2.10;;;;;;;;;;5035660;28;20036;-45
2022/01/24 02:21:41;;;;;;;2.90;2.55;;;;;;;;;;5023590;28;20167;-45
2022/01/24 02:24:09;;;;;;;2.28;2.05;;;;;;;;;;5035589;28;20036;-45
2022/01/24 02:26:34;;;;;;;2.58;2.30;;;;;;;;;;5035445;28;20072;-45
2022/01/24 02:31:51;;;;;;;2.58;2.38;;;15.80;87.30;;;;;;5035746;28;20222;-45
2022/01/24 02:34:28;;;;;;;3.15;2.50;;;15.80;87.70;;;;;;5035335;28;20021;-45
2022/01/24 02:36:57;;;;;;;2.75;2.38;;;15.70;91.80;;;;;;5035431;28;20039;-44
2022/01/24 02:50:22;;;;;;;3.65;2.50;;;15.60;87.50;;;;;;5035140;28;20412;-45
2022/01/24 02:52:48;;;;;;;2.70;2.40;;;;;;;;;;5035011;28;20037;-45
2022/01/24 02:55:14;;;;;;;3.40;2.42;;;;;;;;;;5034981;28;20026;-45
2022/01/24 02:57:40;;;;;;;2.75;2.50;;;;;;;;;;5034962;28;20101;-45
2022/01/24 03:00:06;;;;;;;2.50;2.30;;;15.60;91.60;;;;;;5034886;28;20156;-48
2022/01/24 03:02:32;;;;;;;3.08;2.63;;;;;;;;;;5034521;28;20033;-47
2022/01/24 03:04:59;;;;;;;3.00;2.70;;;;;;;;;;5034840;28;20387;-48
2022/01/24 03:07:25;;;;;;;3.15;2.60;;;;;;;;;;5033341;28;20048;-49
2022/01/24 03:09:54;;;;;;;3.10;2.80;;;;;;;;;;5035019;28;20029;-49
2022/01/24 03:12:59;;;;;;;2.50;2.30;;;;;;;;;;5034920;28;20036;-47
2022/01/24 03:15:13;;;;;;;2.90;2.60;;;;;;;;;;5033460;28;20091;-47
2022/01/24 03:17:39;;;;;;;3.47;2.75;;;;;;;;;;5034905;28;20021;-48
2022/01/24 03:20:06;;;;;;;3.08;2.53;;;15.50;91.60;;;;;;5034816;28;20057;-48
2022/01/24 03:22:32;;;;;;;3.50;3.20;;;;;;;;;;5034717;28;20391;-48
2022/01/24 03:24:58;;;;;;;4.25;2.63;;;;;;;;;;5034452;28;20365;-47
2022/01/24 03:27:24;;;;;;;3.00;2.58;;;;;;;;;;5034274;28;20044;-47
2022/01/24 03:29:50;;;;;;;2.78;2.53;;;;;;;;;;5034363;28;20056;-47
2022/01/24 03:32:16;;;;;;;3.58;2.85;;;;;;;;;;5034311;28;20508;-47
2022/01/24 03:34:43;;;;;;;3.38;3.00;;;;;;;;;;5034285;28;20033;-47
2022/01/24 03:37:09;;;;;;;3.22;2.92;;;;;;;;;;5034563;28;20029;-47
2022/01/24 03:39:35;;;;;;;3.88;3.30;;;;;;;;;;5034132;28;20072;-48
2022/01/24 03:42:01;;;;;;;2.95;2.60;;;;;;;;;;5034145;28;20029;-47
2022/01/24 03:44:28;;;;;;;3.15;2.80;;;;;;;;;;5034311;28;20029;-47
2022/01/24 03:49:46;;;;;;;3.88;3.20;;;;;;;;;;5034287;28;20041;-46
2022/01/24 03:52:18;;;;;;;4.32;3.33;;;15.50;87.40;;;;;;5034276;28;20156;-49
2022/01/24 03:54:45;;;;;;;3.45;3.00;;;;;;;;;;5033847;28;20108;-47
2022/01/24 03:57:16;;;;;;;4.45;3.47;;;15.50;91.70;;;;;;5033854;28;20546;-48
2022/01/24 03:59:42;;;;;;;4.18;3.50;;;;;;;;;;5033713;28;20052;-47
2022/01/24 04:02:08;;;;;;;4.22;3.80;;;;;;;;;;5033731;28;20149;-48
2022/01/24 04:04:35;;;;;;;5.85;3.38;;;;;;;;;;5033994;28;20578;-48
2022/01/24 04:07:01;;;;;;;4.30;3.50;;;;;;;;;;5033549;28;20038;-47
2022/01/24 04:09:27;;;;;;;4.45;3.60;;;;;;;;;;5033617;28;20021;-48
2022/01/24 04:11:57;;;;;;;4.53;3.67;;;;;;;;;;5033876;28;20140;-46
2022/01/24 04:22:10;;;;;;;5.05;3.78;;;;;;;;;;5033692;28;20121;-48
2022/01/24 04:24:36;;;;;;;3.67;3.38;;;;;;;;;;5033256;28;20041;-47
2022/01/24 04:27:02;;;;;;;3.58;3.28;;;;;;;;;;5033153;28;20029;-47
2022/01/24 04:29:28;;;;;;;4.93;3.75;;;;;;;;;;5033226;28;20036;-47
2022/01/24 04:31:54;;;;;;;4.82;4.35;;;;;;;;;;5033172;28;20037;-47
2022/01/24 04:34:20;;;;;;;5.28;4.28;;;;;;;;;;5033109;28;20115;-47
2022/01/24 04:36:46;;;;;;;4.78;4.13;;;;;;;;;;5033012;28;20109;-47
2022/01/24 04:39:12;;;;;;;3.85;3.33;;;;;;;;;;5033045;28;20029;-48
2022/01/24 04:41:42;;;;;;;6.25;4.60;;;;;;;;;;5032927;28;20026;-49
2022/01/24 04:44:30;;;;;;;4.60;3.83;;;;;;;;;;5033049;28;20499;-47
2022/01/24 04:47:08;;;;;;;5.05;3.90;;;;;;;;;;5032846;28;20034;-47
2022/01/24 04:52:34;;;;;;;5.05;3.97;;;;;;;;;;5032857;28;20031;-48
2022/01/24 04:55:00;;;;;;;4.60;4.05;;;;;;;;;;5032851;28;20026;-48
2022/01/24 04:57:27;;;;;;;6.05;4.60;;;15.30;91.40;;;;;;5032742;28;20476;-47
2022/01/24 04:59:54;;;;;;;4.85;4.35;;;;;;;;;;5032866;28;20022;-48
2022/01/24 05:09:34;;;;;;;5.57;4.65;;;;;;;;;;5052856;28;20140;-51
2022/01/24 05:12:08;;;;;;;7.03;5.03;;;;;;;;;;5052803;28;20025;-50
2022/01/24 05:25:33;;;;;;;6.90;4.93;;;;;;;;;;5052346;28;20453;-46
2022/01/24 05:27:59;;;;;;;6.28;5.32;;;;;;;;;;5052174;28;20077;-46
2022/01/24 05:30:25;;;;;;;5.72;5.20;;;;;;;;;;5051476;28;20056;-46
2022/01/24 05:32:51;;;;;;;7.93;4.97;;;;;;;;;;5052137;28;20029;-46
2022/01/24 05:35:17;;;;;;;5.90;4.85;;;;;;;;;;5052179;28;20410;-47
2022/01/24 05:37:43;;;;;;;6.97;5.30;;;;;;;;;;5052180;28;20099;-45
2022/01/24 05:40:09;;;;;;;6.15;4.90;;;;;;;;;;5052247;28;20025;-46
2022/01/24 05:42:36;;;;;;;6.00;5.28;;;;;;;;;;5052096;28;20033;-46
2022/01/24 05:45:02;;;;;;;7.05;5.00;;;;;;;;;;5052289;28;20025;-46
2022/01/24 05:47:28;;;;;;;6.35;5.10;;;;;;;;;;5051997;28;20549;-46
2022/01/24 05:49:54;;;;;;;6.82;5.13;;;;;;;;;;5052022;28;20158;-45
2022/01/24 05:52:20;;;;;;;6.43;5.40;;;;;;;;;;5052049;28;20075;-46
2022/01/24 05:54:46;;;;;;;6.15;5.28;;;;;;;;;;5052046;28;20399;-50
2022/01/24 05:57:12;;;;;;;6.45;5.72;;;;;;;;;;5052040;28;20040;-50
2022/01/24 05:59:38;;;;;;;7.15;5.43;;;;;;;;;;5051951;28;20029;-50
2022/01/24 06:02:05;;;;;;;6.38;4.80;;;15.20;91.80;;;;;;5051626;28;20527;-50
2022/01/24 06:04:31;;;;;;;7.03;5.78;;;;;;;;;;5051868;28;20147;-50
2022/01/24 06:06:57;;;;;;;6.78;5.00;;;;;;;;;;5051722;28;20463;-48
2022/01/24 06:09:23;;;;;;;5.65;4.53;;;;;;;;;;5051770;28;20037;-50
2022/01/24 06:11:49;;;;;;;5.55;4.38;;;;;;;;;;5051788;28;20076;-48
2022/01/24 06:14:15;;;;;;;5.47;4.72;;;;;;;;;;5052106;28;20394;-50
2022/01/24 06:16:41;;;;;;;5.97;4.78;;;;;;;;;;5052102;28;20426;-50
2022/01/24 06:19:07;;;;;;;6.00;4.97;;;;;;;;;;5051736;28;20028;-53
2022/01/24 06:21:33;;;;;;;5.25;4.47;;;;;;;;;;5051987;28;20087;-50
2022/01/24 06:23:59;;;;;;;5.65;4.38;;;;;;;;;;5051667;28;20033;-49
2022/01/24 06:26:25;;;;;;;6.38;4.93;;;;;;;;;;5051879;28;20044;-51
2022/01/24 06:28:51;;;;;;;5.90;4.82;;;;;;;;;;5051910;28;20029;-49
2022/01/24 06:31:17;;;;;;;5.68;5.07;;;;;;;;;;5051688;28;20519;-50
2022/01/24 06:33:43;;;;;;;5.78;4.38;;;;;;;;;;5051746;28;20173;-50
2022/01/24 06:36:09;;;;;;;6.90;5.40;;;;;;;;;;5051554;28;20017;-49
2022/01/24 06:38:35;;;;;;;5.40;4.70;;;;;;;;;;5051549;28;20411;-48
2022/01/24 06:41:01;;;;;;;5.22;4.65;;;;;;;;;;5051518;28;20057;-48
2022/01/24 06:43:27;;;;;;;5.75;4.88;;;;;;;;;;5054926;28;20111;-50
2022/01/24 06:45:54;;;;;;;5.47;4.75;;;;;;;;;;5055104;28;20021;-49
2022/01/24 06:48:19;;;;;;;4.60;4.10;;;;;;;;;;5054941;28;20047;-48
2022/01/24 06:50:45;;;;;;;5.28;4.72;;;;;;;;;;5055116;28;20104;-49
2022/01/24 06:53:11;;;;;;;5.35;4.63;;;;;;;;;;5054932;28;20029;-50
2022/01/24 06:55:37;;;;;;;6.32;4.70;;;;;;;;;;5054955;28;20062;-51
2022/01/24 06:58:03;;;;;;;5.72;4.50;;;;;;;;;;5054920;28;20064;-52
2022/01/24 07:00:31;;;;;;;5.55;4.85;;;;;;;;;;5054904;28;20363;-49
2022/01/24 07:02:57;;;;;;;6.68;4.43;;;;;;;;;;5054732;28;20076;-49
2022/01/24 07:05:24;;;;;;;5.80;4.53;;;16.10;89.60;;;;;;5054693;28;20026;-51
2022/01/24 07:07:50;;;;;;;7.93;4.63;;;;;;;;;;5054700;28;20124;-50
2022/01/24 07:10:16;;;;;;;6.28;4.32;;;;;;;;;;5055062;28;20052;-46
2022/01/24 07:12:42;;;;;;;8.10;4.22;;;;;;;;;;5054660;28;20033;-46
2022/01/24 07:15:13;;;;;;;5.95;4.65;;;;;;;;;;5054620;28;20108;-46
2022/01/24 07:20:16;;;;;;;6.82;5.40;;;;;;;;;;5054887;28;20079;-46
2022/01/24 07:22:42;;;;;;;7.00;4.82;;;;;;;;;;5054723;28;20029;-45
2022/01/24 07:25:08;;;;;;;7.28;5.07;;;;;;;;;;5054421;28;20493;-47
2022/01/24 07:27:34;;;;;;;8.18;5.35;;;;;;;;;;5054311;28;20079;-46
2022/01/24 07:30:01;;;;;;;5.78;4.60;;;;;;;;;;5054418;28;20502;-47
2022/01/24 07:32:28;;;;;;;6.13;4.85;;;16.30;90.10;;;;;;5054252;28;20078;-46
2022/01/24 07:34:54;;;;;;;6.47;4.68;;;;;;;;;;5054164;28;20029;-45
2022/01/24 07:37:21;;;;;;;6.93;5.10;;;;;;;;;;5053794;28;20025;-46
2022/01/24 07:39:48;;;;;;;5.95;4.45;;;;;;;;;;5053588;28;20078;-46
2022/01/24 07:42:17;;;;;;;7.03;4.80;;;;;;;;;;5054111;28;20036;-45
2022/01/24 07:44:43;;;;;;;5.13;4.32;;;;;;;;;;5054091;28;20029;-46
2022/01/24 07:47:09;;;;;;;9.10;5.00;;;;;;;;;;5053905;28;20076;-46
2022/01/24 07:49:35;;;;;;;7.63;5.20;;;;;;;;;;5054204;28;20060;-46
2022/01/24 07:52:01;;;;;;;7.28;5.28;;;;;;;;;;5054165;28;20057;-46
2022/01/24 07:54:27;;;;;;;8.13;5.70;;;;;;;;;;5052978;28;20029;-46
2022/01/24 07:56:53;;;;;;;6.88;5.75;;;;;;;;;;5053874;28;20124;-46
2022/01/24 07:59:20;;;;;;;10.68;5.95;;;;;;;;;;5053780;28;20100;-46
2022/01/24 08:01:46;;;;;;;7.75;5.32;;;;;;;;;;5053784;28;20025;-46
2022/01/24 08:04:12;;;;;;;7.45;5.30;;;;;;;;;;5053783;28;20043;-45
2022/01/24 08:06:38;;;;;;;6.07;5.30;;;;;;;;;;5053596;28;20037;-45
2022/01/24 08:09:06;;;;;;;7.88;5.40;;;;;;;;;;5053625;28;20029;-46
2022/01/24 08:11:32;;;;;;;5.95;5.07;;;;;;;;;;5053779;28;20033;-46
2022/01/24 08:13:58;;;;;;;6.88;5.40;;;;;;;;;;5053775;28;20029;-46
2022/01/24 08:16:24;;;;;;;7.45;5.22;;;;;;;;;;5053430;28;20498;-46
2022/01/24 08:18:52;;;;;;;7.80;5.45;;;;;;;;;;5053416;28;20033;-46
2022/01/24 08:21:18;;;;;;;6.50;5.38;;;;;;;;;;5053333;28;20395;-46
2022/01/24 08:23:44;;;;;;;7.50;5.65;;;;;;;;;;5053414;28;20025;-47
2022/01/24 08:26:10;;;;;;;6.70;5.07;;;;;;;;;;5053233;28;20037;-47
2022/01/24 08:28:36;;;;;;;7.45;5.55;;;;;;;;;;5053163;28;20467;-46
2022/01/24 08:31:02;;;;;;;7.88;5.20;;;;;;;;;;5053108;28;20067;-46
2022/01/24 08:33:28;;;;;;;7.15;5.03;;;;;;;;;;5053085;28;20029;-46
2022/01/24 08:35:54;;;;;;;6.57;5.22;;;;;;;;;;5053127;28;20529;-46
2022/01/24 08:38:21;;;;;;;6.50;4.82;;;16.30;87.90;;;;;;5052874;28;20036;-46
2022/01/24 08:40:51;;;;;;;9.32;5.70;;;;;;;;;;5053061;28;20386;-50
2022/01/24 08:43:35;;;;;;;9.20;5.10;;;;;;;;;;5053187;28;20021;-50
2022/01/24 08:46:01;;;;;;;6.78;5.10;;;;;;;;;;5052961;28;20275;-50
2022/01/24 08:48:29;;;;;;;6.95;5.47;;;;;;;;;;5052758;28;20045;-51
2022/01/24 08:50:56;;;;;;;6.72;5.20;;;16.10;88.20;;;;;;5052875;28;20079;-49
2022/01/24 08:53:23;;;;;;;6.15;5.15;;;;;;;;;;5052796;28;20040;-49
2022/01/24 08:55:49;;;;;;;8.77;4.90;;;;;;;;;;5052719;28;20471;-49
2022/01/24 08:58:16;;;;;;;6.38;5.18;;;16.20;84.60;;;;;;5051471;28;20021;-51
2022/01/24 09:00:45;;;;;;;6.75;5.13;;;14.50;80.10;;;;;;5052927;28;20114;-50
2022/01/24 09:03:12;;;;;;;6.60;5.13;;;;;;;;;;5052520;28;20048;-49
2022/01/24 09:05:38;;;;;;;5.53;4.82;;;;;;;;;;5052618;28;20025;-49
2022/01/24 09:08:05;;;;;;;7.57;5.65;;;16.20;87.80;;;;;;5052750;28;20044;-49
2022/01/24 09:10:32;;;;;;;8.02;5.38;;;16.30;86.90;;;;;;5052684;28;20060;-48
2022/01/24 09:12:58;;;;;;;7.35;5.15;;;;;;;;;;5052567;28;20510;-51
2022/01/24 09:15:24;;;;;;;13.73;5.25;;;;;;;;;;5052472;28;20679;-52
2022/01/24 09:17:50;;;;;;;10.15;5.30;;;;;;;;;;5052453;28;20059;-46
2022/01/24 09:20:16;;;;;;;12.57;4.88;;;;;;;;;;5052366;28;20025;-47
2022/01/24 09:22:43;;;;;;;8.48;4.13;;;16.30;87.50;;;;;;5052332;28;20037;-46
2022/01/24 09:25:10;;;;;;;11.35;6.85;;;;;;;;;;5052286;28;20028;-46
2022/01/24 09:27:39;;;;;;;10.25;5.18;;;16.30;87.30;;;;;;5052149;28;20403;-46
2022/01/24 09:30:07;;;;;;;8.45;5.78;;;16.20;87.30;;;;;;5052209;28;20033;-47
2022/01/24 09:32:33;;;;;;;9.82;5.53;;;;;;;;;;5052094;28;20036;-47
2022/01/24 09:34:59;;;;;;;19.73;5.55;;;;;;;;;;5052313;28;20028;-46
2022/01/24 09:37:26;;;;;;;10.60;5.40;;;;;;;;;;5052164;28;20037;-48
2022/01/24 09:39:52;;;;;;;8.73;6.07;;;;;;;;;;5052100;28;20539;-47
2022/01/24 09:42:19;;;;;;;6.97;5.22;;;;;;;;;;5052104;28;20115;-48
2022/01/24 09:44:45;;;;;;;7.07;5.45;;;;;;;;;;5052053;28;20379;-48
2022/01/24 09:47:15;;;;;;;6.72;4.70;;;16.40;89.40;;;;;;5052028;28;20033;-48
2022/01/24 09:49:41;;;;;;;7.72;5.18;;;;;;;;;;5052056;28;20056;-47
2022/01/24 09:52:07;;;;;;;8.18;5.10;;;;;;;;;;5052354;28;20118;-47
2022/01/24 09:54:33;;;;;;;7.10;5.30;;;;;;;;;;5052093;28;20036;-50
2022/01/24 09:56:59;;;;;;;7.25;5.15;;;;;;;;;;5052220;28;20029;-49
2022/01/24 09:59:25;;;;;;;8.88;5.53;;;;;;;;;;5051868;28;20033;-50
2022/01/24 10:01:51;;;;;;;9.65;6.00;;;;;;;;;;5051667;28;20064;-49
2022/01/24 10:04:20;;;;;;;12.07;6.07;;;16.20;91.10;;;;;;5051954;28;20025;-49
2022/01/24 10:07:02;;;;;;;7.72;5.97;;;16.10;89.20;;;;;;5051642;28;20025;-49
2022/01/24 10:09:28;;;;;;;11.98;5.80;;;;;;;;;;5051859;28;20484;-49
2022/01/24 10:12:17;;;;;;;10.45;6.95;;;16.00;89.10;;;;;;5051788;28;20028;-49
2022/01/24 10:17:30;;;;;;;11.45;6.88;;;;;;;;;;5054115;28;20044;-47
2022/01/24 10:19:56;;;;;;;7.57;5.85;;;;;;;;;;5055692;28;20029;-46
2022/01/24 10:22:25;;;;;;;12.02;6.43;;;15.80;92.80;;;;;;5055619;28;20032;-48
2022/01/24 10:24:54;;;;;;;10.13;6.32;;;15.90;91.00;;;;;;5055573;28;20021;-48
2022/01/24 10:27:23;;;;;;;9.27;6.67;;;;;;;;;;5055206;28;20029;-47
2022/01/24 10:29:51;;;;;;;7.97;6.15;;;;;;;;;;5055175;28;20063;-47
2022/01/24 10:32:35;;;;;;;9.15;6.05;;;15.90;90.30;;;;;;5055191;28;20029;-48
2022/01/24 10:35:22;;;;;;;8.48;5.50;;;15.90;90.20;;;;;;5055115;28;20056;-49
2022/01/24 10:37:50;;;;;;;7.57;5.68;;;;;;;;;;5055358;28;20017;-48
2022/01/24 10:40:47;;;;;;;9.20;5.80;;;15.80;90.20;;;;;;5054925;28;20035;-49
2022/01/24 10:43:27;;;;;;;6.28;5.25;;;15.80;90.10;;;;;;5054818;28;20017;-50
2022/01/24 10:45:54;;;;;;;7.30;5.50;;;;;;;;;;5054872;28;20483;-48
2022/01/24 10:48:25;;;;;;;8.15;5.80;;;;;;;;;;5054745;28;20176;-48
2022/01/24 10:51:03;;;;;;;6.65;5.78;;;;;;;;;;5054939;28;20386;-46
2022/01/24 10:53:34;;;;;;;7.72;5.53;;;15.70;93.80;;;;;;5054539;28;20025;-46
2022/01/24 10:56:00;;;;;;;7.18;4.88;;;;;;;;;;5054585;28;20028;-46
2022/01/24 10:58:34;;;;;;;6.18;5.57;;;15.70;93.90;;;;;;5054654;28;20032;-46
2022/01/24 11:01:00;;;;;;;5.90;4.88;;;;;;;;;;5054751;28;20028;-47
2022/01/24 11:03:26;;;;;;;8.27;5.53;;;;;;;;;;5053225;28;20053;-47
2022/01/24 11:05:52;;;;;;;5.93;5.15;;;;;;;;;;5054761;28;20032;-46
2022/01/24 11:08:18;;;;;;;6.10;5.20;;;;;;;;;;5054555;28;20075;-46
2022/01/24 11:10:44;;;;;;;6.45;5.13;;;;;;;;;;5054983;28;20436;-46
2022/01/24 11:13:11;;;;;;;5.63;4.65;;;;;;;;;;5054945;28;20052;-46
2022/01/24 11:15:44;;;;;;;5.38;4.80;;;15.90;93.80;;;;;;5054607;28;20025;-46
2022/01/24 11:18:14;;;;;;;5.18;4.60;;;;;;;;;;5054775;28;20104;-46
2022/01/24 11:20:44;;;;;;;4.95;4.45;;;;;;;;;;5054441;28;20021;-46
2022/01/24 11:23:10;;;;;;;;;;;15.90;93.50;;;;;;5054960;28;20040;-46
2022/01/24 11:25:43;;;;;;;7.20;4.57;;;15.90;90.80;;;;;;5054298;28;20294;-46
2022/01/24 11:28:09;;;;;;;5.93;4.88;;;15.90;93.70;;;;;;5053099;28;20044;-48
2022/01/24 11:30:48;;;;;;;5.07;4.50;;;15.80;93.80;;;;;;5054341;28;20020;-48
2022/01/24 11:33:22;;;;;;;6.32;5.03;;;16.00;93.90;;;;;;5054284;28;20036;-49
2022/01/24 11:35:54;;;;;;;5.53;4.70;;;15.90;93.90;;;;;;5054048;28;20116;-49
2022/01/24 11:38:35;;;;;;;5.93;5.05;;;15.90;90.80;;;;;;5054237;28;20512;-48
2022/01/24 11:41:02;;;;;;;6.78;5.57;;;15.90;93.80;;;;;;5053963;28;20467;-49
2022/01/24 11:43:36;;;;;;;7.25;5.57;;;15.90;90.80;;;;;;5053773;28;20082;-50
2022/01/24 11:46:07;;;;;;;6.18;5.22;;;15.90;92.50;;;;;;5054411;28;20063;-46
2022/01/24 11:48:38;;;;;;;6.85;5.32;;;15.70;93.80;;;;;;5054278;28;20045;-46
2022/01/24 11:51:12;;;;;;;5.75;5.07;;;15.80;90.90;;;;;;5054094;28;20024;-46
2022/01/24 11:53:44;;;;;;;5.63;4.88;;;15.90;93.80;;;;;;5054175;28;20044;-45
2022/01/24 11:56:17;;;;;;;5.20;4.38;;;15.90;90.60;;;;;;5053557;28;20021;-46
2022/01/24 11:58:43;;;;;;;5.45;4.47;;;;;;;;;;5053833;28;20096;-46
2022/01/24 12:01:14;;;;;;;5.13;4.63;;;;;;;;;;5054091;28;20021;-47
2022/01/24 12:03:50;;;;;;;6.22;5.35;;;15.90;93.30;;;;;;5053611;28;20049;-50
2022/01/24 12:06:20;;;;;;;5.50;4.38;;;;;;;;;;5053696;28;20036;-49
2022/01/24 12:08:51;;;;;;;4.72;4.32;;;;;;;;;;5053933;28;20041;-51
2022/01/24 12:11:23;;;;;;;4.97;4.30;;;16.10;92.70;;;;;;5053478;28;20040;-48
2022/01/24 12:13:53;;;;;;;6.05;4.47;;;16.20;93.10;;;;;;5053393;28;20032;-49
2022/01/24 12:16:20;;;;;;;4.90;4.35;;;;;;;;;;5053445;28;20017;-48
2022/01/24 12:18:51;;;;;;;5.40;4.50;;;16.10;92.80;;;;;;5053644;28;20049;-48
2022/01/24 12:21:26;;;;;;;6.65;4.15;;;16.00;89.70;;;;;;5053667;28;20383;-47
2022/01/24 12:24:01;;;;;;;5.50;4.95;;;15.90;90.20;;;;;;5053490;28;20497;-50
2022/01/24 12:26:44;;;;;;;5.35;4.55;;;15.90;90.30;;;;;;5053037;28;20479;-49
2022/01/24 12:29:13;;;;;;;5.28;4.45;;;15.90;93.10;;;;;;5052806;28;20027;-49
2022/01/24 12:31:47;;;;;;;5.35;4.82;;;15.80;89.70;;;;;;5052797;28;20686;-49
2022/01/24 12:34:16;;;;;;;6.57;4.93;;;15.80;90.00;;;;;;5052831;28;20391;-48
2022/01/24 12:36:59;;;;;;;6.25;4.70;;;15.80;89.90;;;;;;5052795;28;20082;-48
2022/01/24 12:39:48;;;;;;;5.47;4.68;;;15.80;89.80;;;;;;5052545;28;20044;-47
2022/01/24 12:42:34;;;;;;;6.53;4.40;;;15.80;92.80;;;;;;5052959;28;20025;-51
2022/01/24 12:47:56;;;;;;;5.75;5.13;;;;;;;;;;5052765;28;20584;-49
2022/01/24 12:50:23;;;;;;;5.65;5.05;;;15.70;92.10;;;;;;5052771;28;20029;-48
2022/01/24 12:52:51;;;;;;;6.60;5.05;;;;;;;;;;5052867;28;20041;-49
2022/01/24 12:55:17;;;;;;;6.53;4.88;;;15.70;90.70;;;;;;5052813;28;20017;-49
2022/01/24 12:57:43;;;;;;;5.70;5.15;;;;;;;;;;5052830;28;20035;-49
2022/01/24 13:00:16;;;;;;;6.85;5.15;;;15.70;89.10;;;;;;5052815;28;20040;-47
2022/01/24 13:02:42;;;;;;;5.80;4.90;;;;;;;;;;5052479;28;20506;-49
2022/01/24 13:05:23;;;;;;;4.95;4.45;;;15.90;93.00;;;;;;5052944;28;20025;-49
2022/01/24 13:07:55;;;;;;;5.72;4.85;;;16.10;90.60;;;;;;5052820;28;20037;-49
2022/01/24 13:10:26;;;;;;;5.65;4.55;;;16.30;93.90;;;;;;5052439;28;20065;-48
2022/01/24 13:12:59;;;;;;;4.57;4.18;;;16.50;91.00;;;;;;5052462;28;20029;-49
2022/01/24 13:21:12;;;;;;;4.32;3.60;;;17.00;91.00;;;;;;5052751;28;20043;-46
2022/01/24 13:23:44;;;;;;;4.72;3.60;;;;;;;;;;5052540;28;20111;-46
2022/01/24 13:26:12;;;;;;;4.15;3.75;;;17.20;92.30;;;;;;5052208;28;20529;-47
2022/01/24 13:28:38;;;;;;;3.83;3.40;;;;;;;;;;5052413;28;20037;-47
2022/01/24 13:31:05;;;;;;;3.33;3.03;;;;;;;;;;5052280;28;20060;-46
2022/01/24 13:33:32;;;;;;;3.55;2.97;;;;;;;;;;5052464;28;20052;-47
2022/01/24 13:36:00;;;;;;;3.42;3.13;;;17.80;93.90;;;;;;5052213;28;20029;-48
2022/01/24 13:38:33;;;;;;;3.15;2.90;;;17.80;90.60;;;;;;5052168;28;20502;-48
2022/01/24 13:41:04;;;;;;;3.17;2.88;;;17.80;93.60;;;;;;5052619;28;20029;-49
2022/01/24 13:43:30;;;;;;;3.08;2.85;;;;;;;;;;5052101;28;20372;-50
2022/01/24 13:45:57;;;;;;;3.15;2.85;;;;;;;;;;5051963;28;20033;-49
2022/01/24 13:48:24;;;;;;;3.58;3.13;;;;;;;;;;5051972;28;20040;-49
2022/01/24 13:50:58;;;;;;;4.53;2.80;;;18.20;90.50;;;;;;5052034;28;20059;-49
2022/01/24 13:53:58;;;;;;;3.28;2.97;;;18.30;90.40;;;;;;5055926;28;20033;-49
2022/01/24 13:56:43;;;;;;;3.13;2.83;;;18.30;90.40;;;;;;5055684;28;20106;-47
2022/01/24 13:59:10;;;;;;;3.33;3.03;;;;;;;;;;5056128;28;20072;-47
2022/01/24 14:01:38;;;;;;;2.80;2.60;;;18.40;92.00;;;;;;5055721;28;20078;-46
2022/01/24 14:04:06;;;;;;;2.95;2.50;;;18.50;93.10;;;;;;5055777;28;20033;-47
2022/01/24 14:06:37;;;;;;;2.63;2.42;;;18.50;93.00;;;;;;5055797;28;20018;-46
2022/01/24 14:09:12;;;;;;;3.20;2.90;;;18.50;90.00;;;;;;5055494;28;20024;-46
2022/01/24 14:11:43;;;;;;;3.70;2.83;;;18.50;90.20;;;;;;5055470;28;20025;-46
2022/01/24 14:14:13;;;;;;;2.92;2.63;;;;;;;;;;5055781;28;20025;-47
2022/01/24 14:19:17;;;;;;;2.70;2.50;;;;;;;;;;5055701;28;20399;-46
2022/01/24 14:22:11;;;;;;;2.58;2.38;;;18.70;90.00;;;;;;5055904;28;20032;-47
2022/01/24 14:24:54;;;;;;;3.13;2.83;;;18.70;89.90;;;;;;5055607;28;20028;-46
2022/01/24 14:28:05;;;;;;;2.75;2.55;;;18.80;92.80;;;;;;5055683;28;20041;-45
2022/01/24 14:30:32;;;;;;;3.05;2.60;;;;;;;;;;4993936;28;20038;-46
2022/01/24 14:33:18;;;;;;;3.28;2.83;;;18.70;88.80;;;;;;5047995;28;20037;-46
2022/01/24 14:36:08;;;;;;;3.03;2.72;;;18.70;89.20;;;;;;5055463;28;20048;-46
2022/01/24 14:38:38;;;;;;;2.90;2.70;;;18.70;88.60;;;;;;5055408;28;20487;-46
2022/01/24 14:41:07;;;;;;;2.92;2.72;;;18.60;92.20;;;;;;5055268;28;20025;-46
2022/01/24 14:46:22;;;;;;;3.08;2.78;;;18.60;92.40;;;;;;5055626;28;20036;-45
2022/01/24 14:49:01;;;;;;;3.33;2.72;;;18.60;88.80;;;;;;5055321;28;20111;-47
2022/01/24 14:51:31;;;;;;;2.97;2.78;;;18.60;88.80;;;;;;5055163;28;20036;-46
2022/01/24 14:54:00;;;;;;;2.75;2.55;;;18.50;92.20;;;;;;5055335;28;20471;-46
2022/01/24 14:56:27;;;;;;;3.05;2.75;;;;;;;;;;5055098;28;20112;-47
2022/01/24 14:58:53;;;;;;;3.53;2.60;;;;;;;;;;5055160;28;20100;-46
2022/01/24 15:01:20;;;;;;;3.05;2.70;;;18.40;92.10;;;;;;5053164;28;20471;-47
2022/01/24 15:03:47;;;;;;;4.97;3.00;;;;;;;;;;5052704;28;20425;-47
2022/01/24 15:06:13;;;;;;;3.35;3.05;;;;;;;;;;5053303;28;20506;-46
2022/01/24 15:08:41;;;;;;;2.92;2.47;;;18.20;92.00;;;;;;5053687;28;20033;-47
2022/01/24 15:11:07;;;;;;;3.10;2.80;;;;;;;;;;5053530;28;20147;-46
2022/01/24 15:13:42;;;;;;;3.60;3.15;;;;;;;;;;5053498;28;20029;-47
2022/01/24 15:16:18;;;;;;;4.07;2.90;;;;;;;;;;5054373;28;20071;-47
2022/01/24 15:26:45;;;;;;;3.22;2.80;;;;;;;;;;5054402;28;20189;-47
2022/01/24 15:29:11;;;;;;;3.70;3.25;;;;;;;;;;5054275;28;20040;-48
2022/01/24 15:31:37;;;;;;;3.33;3.03;;;;;;;;;;5054297;28;20047;-46
2022/01/24 15:34:03;;;;;;;2.95;2.65;;;;;;;;;;5054475;28;20479;-47
2022/01/24 15:36:29;;;;;;;3.25;2.95;;;;;;;;;;5054206;28;20486;-47
2022/01/24 15:38:59;;;;;;;3.15;2.85;;;;;;;;;;5054139;28;20040;-47
2022/01/24 15:41:25;;;;;;;5.15;3.35;;;;;;;;;;5054023;28;20445;-47
2022/01/24 15:48:43;;;;;;;4.05;3.20;;;;;;;;;;5054250;28;20036;-49
2022/01/24 15:51:12;;;;;;;3.97;2.95;;;;;;;;;;5053734;28;20116;-48
2022/01/24 15:53:44;;;;;;;3.08;2.78;;;17.90;86.60;;;;;;5053886;28;20054;-49
2022/01/24 15:58:51;;;;;;;2.90;2.70;;;;;;;;;;5053809;28;20047;-48
2022/01/24 16:01:17;;;;;;;2.70;2.50;;;;;;;;;;5053819;28;20025;-48
2022/01/24 16:03:43;;;;;;;4.65;3.03;;;;;;;;;;5053528;28;20564;-47
2022/01/24 16:06:09;;;;;;;3.30;3.00;;;;;;;;;;5053703;28;20025;-47
2022/01/24 16:08:35;;;;;;;3.00;2.65;;;;;;;;;;5053596;28;20403;-48
2022/01/24 16:11:01;;;;;;;3.58;2.92;;;;;;;;;;5053449;28;20017;-47
2022/01/24 16:13:29;;;;;;;4.47;3.00;;;;;;;;;;5053734;28;20033;-47
2022/01/24 16:15:55;;;;;;;3.55;2.95;;;;;;;;;;5052494;28;20111;-47
2022/01/24 16:18:21;;;;;;;2.97;2.65;;;;;;;;;;5053373;28;20029;-47
2022/01/24 16:21:13;;;;;;;3.63;3.33;;;;;;;;;;5052978;28;20028;-47
2022/01/24 16:25:19;;;;;;;5.30;3.33;;;;;;;;;;5052976;28;20110;-47
2022/01/24 16:26:25;;;;;;;3.22;2.92;;;;;;;;;;5052598;28;20117;-48